Latest Coastal Weather Observations for Hogan Island

IDV60701

Issued at 4:31 pm EST Friday 27 May 2016 (issued every 10 minutes, with the page automatically refreshed every 10 minutes)

About coastal observations | Map of coastal stations | Coastal observations for VIC | Marine services | Other Formats
Station Details ID: 200838 Name: HOGAN ISLAND Lat: -39.22 Lon: 146.98 Height: 116.0 m
Data from the previous 72 hours. | See also: Recent months at Hogan Island
Date/Time
EST
Temp

°C
Wind Pressure Rain
since 9am
mm
Weather Cloud Vis
km
Sea
Height
m
Swell
Dir
 
Speed
knots
Gust
knots
hPa Trend Height
m
Period
s
Dir
27/04:30pm 11.6 WSW 22 26 1004.8 - 0.0 - - - - - - -
27/04:00pm 12.1 WSW 21 25 1004.5 - 0.0 - - - - - - -
27/03:30pm 12.2 WSW 24 27 1004.3 - 0.0 - - - - - - -
27/03:00pm 12.1 WSW 24 27 1004.1 - 0.0 - - - - - - -
27/02:30pm 12.6 WSW 25 29 1003.9 - 0.0 - - - - - - -
27/02:00pm 12.5 WSW 26 30 1003.7 - 0.0 - - - - - - -
27/01:30pm 12.6 SW 24 29 1003.6 - 0.0 - - - - - - -
27/01:00pm 12.4 WSW 23 28 1003.6 - 0.0 - - - - - - -
27/12:30pm 12.1 WSW 24 28 1003.7 - 0.0 - - - - - - -
27/12:00pm 12.3 SW 23 28 1003.8 - 0.0 - - - - - - -
27/11:30am 12.3 SW 23 27 1004.0 - 0.0 - - - - - - -
27/11:00am 12.2 SW 25 31 1004.1 - 0.0 - - - - - - -
27/10:30am 11.9 SW 27 30 1004.0 - 0.0 - - - - - - -
27/10:00am 12.1 SW 26 31 1003.9 - 0.0 - - - - - - -
27/09:30am 11.7 SW 29 33 1003.7 - 0.0 - - - - - - -
27/09:00am 11.7 SW 29 34 1003.4 - 4.2 - - - - - - -
27/08:30am 11.5 WSW 31 35 1003.0 - 4.2 - - - - - - -
27/08:00am 11.5 SW 30 36 1002.8 - 4.2 - - - - - - -
27/07:30am 11.3 WSW 31 36 1002.6 - 4.2 - - - - - - -
27/07:00am 11.2 SW 30 35 1002.5 - 4.2 - - - - - - -
27/06:30am 11.3 SW 32 38 1002.3 - 4.2 - - - - - - -
27/06:00am 11.3 SW 32 38 1001.9 - 4.2 - - - - - - -
27/05:30am 11.3 WSW 32 40 1001.8 - 4.2 - - - - - - -
27/05:00am 11.4 WSW 33 38 1001.8 - 4.2 - - - - - - -
27/04:30am 11.4 WSW 32 37 1001.6 - 4.2 - - - - - - -
27/04:00am 11.4 SW 31 37 1001.4 - 4.2 - - - - - - -
27/03:30am 11.5 SW 32 37 1001.4 - 4.2 - - - - - - -
27/03:00am 11.3 WSW 30 35 1001.5 - 4.2 - - - - - - -
27/02:30am 11.4 SW 31 36 1001.5 - 4.2 - - - - - - -
27/02:00am 11.4 WSW 31 37 1001.4 - 4.2 - - - - - - -
27/01:30am 11.6 SW 29 35 1001.3 - 4.2 - - - - - - -
27/01:00am 11.4 WSW 29 34 1001.5 - 4.2 - - - - - - -
27/12:32am 11.5 WSW 30 40 1001.3 - 4.2 - - - - - - -
27/12:30am 11.6 WSW 30 34 1001.3 - 4.2 - - - - - - -
27/12:00am 11.5 WSW 30 35 1001.6 - 4.2 - - - - - - -
 
Date/Time
EST
Temp

°C
Wind Pressure Rain
since 9am
mm
Weather Cloud Vis
km
Sea
Height
m
Swell
Dir
 
Speed
knots
Gust
knots
hPa Trend Height
m
Period
s
Dir
26/11:30pm 11.5 WSW 30 36 1001.7 - 4.2 - - - - - - -
26/11:00pm 11.5 SW 31 36 1001.5 - 4.2 - - - - - - -
26/10:30pm 11.7 SW 29 35 1001.5 - 4.2 - - - - - - -
26/10:00pm 11.7 WSW 30 35 1001.5 - 4.2 - - - - - - -
26/09:30pm 11.7 WSW 31 37 1001.5 - 4.2 - - - - - - -
26/09:00pm 11.9 WSW 31 36 1001.4 - 4.2 - - - - - - -
26/08:30pm 12.0 SW 29 34 1001.1 - 4.2 - - - - - - -
26/08:00pm 11.5 SW 27 31 1001.0 - 4.2 - - - - - - -
26/07:30pm 11.6 SW 30 34 1000.7 - 4.2 - - - - - - -
26/07:00pm 11.7 WSW 30 35 1000.2 - 4.0 - - - - - - -
26/06:30pm 11.5 WSW 31 35 1000.2 - 4.0 - - - - - - -
26/06:00pm 11.3 WSW 30 36 999.9 - 4.0 - - - - - - -
26/05:30pm 10.8 WSW 30 37 999.6 - 3.8 - - - - - - -
26/05:00pm 10.1 WSW 31 38 999.7 - 3.2 - - - - - - -
26/04:30pm 10.1 WSW 30 35 999.5 - 2.6 - - - - - - -
26/04:00pm 10.1 WSW 25 29 999.5 - 2.4 - - - - - - -
26/03:30pm 9.9 WSW 26 30 999.5 - 2.4 - - - - - - -
26/03:00pm 10.1 WSW 20 25 999.5 - 2.0 - - - - - - -
26/02:30pm 9.8 WSW 21 24 999.5 - 2.0 - - - - - - -
26/02:00pm 9.9 WSW 21 25 999.7 - 1.6 - - - - - - -
26/01:30pm 10.4 SW 20 25 999.7 - 1.2 - - - - - - -
26/01:00pm 10.2 WSW 21 25 999.7 - 1.0 - - - - - - -
26/12:30pm 10.5 W 23 27 999.7 - 1.0 - - - - - - -
26/12:21pm 10.6 W 22 29 999.7 - 1.0 - - - - - - -
26/12:00pm 10.7 WNW 21 25 999.9 - 0.8 - - - - - - -
26/11:30am 10.5 WNW 21 24 1000.5 - 0.4 - - - - - - -
26/11:00am 10.7 WNW 21 25 1001.0 - 0.2 - - - - - - -
26/10:30am 11.0 WNW 19 22 1001.4 - 0.2 - - - - - - -
26/10:00am 11.0 WNW 16 21 1001.8 - 0.2 - - - - - - -
26/09:30am 10.8 WNW 16 21 1002.2 - 0.2 - - - - - - -
26/09:00am 10.6 WNW 12 15 1002.1 - 6.4 - - - - - - -
26/08:30am 10.6 WNW 14 19 1002.6 - 6.4 - - - - - - -
26/08:00am 10.5 NW 13 16 1002.7 - 6.2 - - - - - - -
26/07:30am 10.5 WNW 16 20 1002.6 - 6.2 - - - - - - -
26/07:00am 10.5 NW 15 19 1003.0 - 5.6 - - - - - - -
26/06:30am 10.7 NW 15 19 1003.1 - 5.2 - - - - - - -
26/06:00am 11.0 NW 14 17 1003.0 - 5.0 - - - - - - -
26/05:30am 10.9 NW 14 19 1003.4 - 4.8 - - - - - - -
26/05:00am 11.0 NW 13 17 1003.6 - 4.8 - - - - - - -
26/04:30am 11.2 NW 11 15 1004.0 - 4.8 - - - - - - -
26/04:00am 11.3 NW 11 16 1004.0 - 4.8 - - - - - - -
26/03:30am 11.2 NW 11 14 1004.3 - 4.8 - - - - - - -
26/03:00am 11.1 WNW 12 16 1004.6 - 4.8 - - - - - - -
26/02:30am 11.3 WNW 13 16 1005.0 - 4.6 - - - - - - -
26/02:00am 11.7 NW 12 16 1005.2 - 3.6 - - - - - - -
26/01:30am 12.3 NW 15 19 1005.3 - 3.4 - - - - - - -
26/01:00am 12.7 NNW 11 18 1005.7 - 3.4 - - - - - - -
26/12:30am 12.4 N 14 17 1006.0 - 3.4 - - - - - - -
26/12:00am 12.3 N 16 19 1006.3 - 3.4 - - - - - - -
 
Date/Time
EST
Temp

°C
Wind Pressure Rain
since 9am
mm
Weather Cloud Vis
km
Sea
Height
m
Swell
Dir
 
Speed
knots
Gust
knots
hPa Trend Height
m
Period
s
Dir
25/11:30pm 12.2 N 15 18 1006.7 - 3.4 - - - - - - -
25/11:00pm 11.7 N 16 19 1007.0 - 3.4 - - - - - - -
25/10:30pm 11.4 N 14 19 1007.4 - 3.4 - - - - - - -
25/10:00pm 11.2 N 14 18 1007.8 - 3.2 - - - - - - -
25/09:30pm 11.2 N 14 18 1008.1 - 3.0 - - - - - - -
25/09:00pm 11.2 N 14 19 1008.4 - 2.4 - - - - - - -
25/08:30pm 11.2 NW 19 25 1008.5 - 1.8 - - - - - - -
25/08:00pm 11.2 NW 19 25 1008.5 - 1.0 - - - - - - -
25/07:30pm 11.7 WNW 20 24 1008.4 - 0.0 - - - - - - -
25/07:00pm 12.3 WNW 19 22 1008.4 - 0.0 - - - - - - -
25/06:43pm 13.3 WNW 15 27 1008.4 - 0.0 - - - - - - -
25/06:30pm 14.0 NW 11 15 1008.7 - 0.0 - - - - - - -
25/06:00pm 14.1 NNW 9 13 1008.7 - 0.0 - - - - - - -
25/05:30pm 14.0 NNW 10 16 1008.9 - 0.0 - - - - - - -
25/05:00pm 13.9 NNW 12 17 1008.7 - 0.0 - - - - - - -
25/04:30pm 14.1 NNW 15 20 1008.7 - 0.0 - - - - - - -
25/04:00pm 14.0 NNW 13 19 1008.9 - 0.0 - - - - - - -
25/03:30pm 13.9 NNW 13 18 1009.2 - 0.0 - - - - - - -
25/03:00pm 13.8 N 11 15 1009.4 - 0.0 - - - - - - -
25/02:30pm 14.1 N 12 15 1009.4 - 0.0 - - - - - - -
25/02:00pm 13.7 NNW 13 20 1009.9 - 0.0 - - - - - - -
25/01:30pm 13.6 NNW 13 18 1010.1 - 0.0 - - - - - - -
25/01:00pm 13.7 NNW 14 20 1010.5 - 0.0 - - - - - - -
25/12:30pm 14.0 NNW 16 21 1011.0 - 0.0 - - - - - - -
25/12:00pm 14.4 NW 17 21 1011.7 - 0.0 - - - - - - -
25/11:30am 13.6 NNW 12 15 1012.4 - 0.0 - - - - - - -
25/11:00am 14.1 NW 14 19 1013.2 - 0.0 - - - - - - -
25/10:30am 12.9 NW 12 15 1013.6 - 0.0 - - - - - - -
25/10:00am 13.3 NW 13 15 1013.8 - 0.0 - - - - - - -
25/09:30am 13.3 NW 13 15 1014.1 - 0.0 - - - - - - -
25/09:00am 13.1 WNW 13 15 1014.1 - 0.0 - - - - - - -
25/08:30am 12.9 WNW 15 17 1014.4 - 0.0 - - - - - - -
25/08:00am 12.5 WNW 17 20 1014.5 - 0.0 - - - - - - -
25/07:30am 11.9 NW 11 13 1014.4 - 0.0 - - - - - - -
25/07:00am 12.1 WNW 14 17 1014.4 - 0.0 - - - - - - -
25/06:30am 12.1 W 14 18 1014.5 - 0.0 - - - - - - -
25/06:00am 11.8 WNW 14 17 1014.4 - 0.0 - - - - - - -
25/05:30am 11.7 WNW 13 16 1014.5 - 0.0 - - - - - - -
25/05:00am 12.0 W 17 20 1014.9 - 0.0 - - - - - - -
25/04:30am 11.8 W 18 21 1015.2 - 0.0 - - - - - - -
25/04:00am 11.7 W 19 23 1015.0 - 0.0 - - - - - - -
25/03:30am 11.3 W 18 21 1014.9 - 0.0 - - - - - - -
25/03:00am 11.3 W 18 22 1014.8 - 0.0 - - - - - - -
25/02:30am 11.8 W 20 24 1015.0 - 0.0 - - - - - - -
25/02:00am 11.8 WSW 17 20 1015.3 - 0.0 - - - - - - -
25/01:30am 11.7 WSW 21 26 1015.7 - 0.0 - - - - - - -
25/01:00am 11.8 W 19 24 1016.0 - 0.0 - - - - - - -
25/12:30am 12.0 W 21 24 1016.1 - 0.0 - - - - - - -
25/12:00am 12.0 W 22 26 1016.1 - 0.0 - - - - - - -
 
Date/Time
EST
Temp

°C
Wind Pressure Rain
since 9am
mm
Weather Cloud Vis
km
Sea
Height
m
Swell
Dir
 
Speed
knots
Gust
knots
hPa Trend Height
m
Period
s
Dir
24/11:30pm 12.1 W 23 27 1016.2 - 0.0 - - - - - - -
24/11:00pm 12.2 W 20 25 1016.4 - 0.0 - - - - - - -
24/10:30pm 12.2 W 22 26 1016.7 - 0.0 - - - - - - -
24/10:00pm 12.2 W 26 30 1016.9 - 0.0 - - - - - - -
24/09:30pm 12.4 W 24 28 1017.1 - 0.0 - - - - - - -
24/09:00pm 12.2 WSW 27 31 1017.0 - 0.0 - - - - - - -
24/08:30pm 12.4 WSW 28 32 1017.0 - 0.0 - - - - - - -
24/08:00pm 12.6 WSW 28 32 1016.9 - 0.0 - - - - - - -
24/07:30pm 12.6 WSW 28 32 1016.8 - 0.0 - - - - - - -
24/07:00pm 12.5 WSW 26 30 1016.6 - 0.0 - - - - - - -
24/06:30pm 12.5 WSW 28 34 1016.4 - 0.0 - - - - - - -
24/06:00pm 12.4 WSW 27 34 1016.4 - 0.0 - - - - - - -
24/05:30pm 12.5 WSW 31 35 1015.9 - 0.0 - - - - - - -
24/05:00pm 11.7 WSW 29 37 1015.9 - 0.0 - - - - - - -

Other Formats:

Comma delimited format used in spreadsheet applications
http://www.bom.gov.au/fwo/IDV60701/IDV60701.94949.axf

JavaScript Object Notation format (JSON) in row-major order
http://www.bom.gov.au/fwo/IDV60701/IDV60701.94949.json